createdAt,value
2018-08-03T00:01:46.347Z,32.70
2018-08-03T00:04:15.088Z,33.20
2018-08-03T00:06:43.774Z,38.10
2018-08-03T00:09:12.739Z,40.70
2018-08-03T00:11:41.783Z,44.00
2018-08-03T00:14:10.451Z,46.00
2018-08-03T00:16:39.432Z,46.70
2018-08-03T00:19:08.094Z,47.90
2018-08-03T00:21:36.715Z,49.60
2018-08-03T00:24:05.395Z,50.20
2018-08-03T00:26:35.307Z,49.40
2018-08-03T00:29:04.331Z,51.50
2018-08-03T00:31:33.014Z,51.20
2018-08-03T00:34:01.427Z,50.30
2018-08-03T00:36:29.791Z,50.10
2018-08-03T00:38:58.188Z,50.60
2018-08-03T00:41:26.555Z,53.40
2018-08-03T00:43:55.110Z,52.00
2018-08-03T00:46:23.565Z,50.90
2018-08-03T00:48:51.983Z,52.10
2018-08-03T00:51:20.619Z,52.10
2018-08-03T00:53:49.122Z,49.50
2018-08-03T00:56:17.791Z,50.00
2018-08-03T00:58:46.332Z,50.30
2018-08-03T01:01:14.774Z,52.90
2018-08-03T01:03:43.483Z,57.80
2018-08-03T01:06:12.147Z,59.30
2018-08-03T01:08:41.650Z,60.00
2018-08-03T01:11:10.320Z,58.10
2018-08-03T01:13:38.950Z,58.80
2018-08-03T01:16:07.351Z,58.90
2018-08-03T01:18:35.978Z,58.80
2018-08-03T01:21:04.531Z,59.20
2018-08-03T01:23:32.916Z,60.50
2018-08-03T01:26:01.563Z,62.60
2018-08-03T01:30:58.098Z,63.80
2018-08-03T01:33:26.699Z,62.60
2018-08-03T01:35:55.100Z,63.00
2018-08-03T01:38:23.486Z,60.50
2018-08-03T01:40:52.211Z,60.30
2018-08-03T01:43:20.919Z,58.90
2018-08-03T01:45:50.083Z,58.60
2018-08-03T01:48:18.823Z,60.30
2018-08-03T01:53:15.506Z,60.20
2018-08-03T01:55:43.919Z,59.30
2018-08-03T01:58:12.499Z,58.80
2018-08-03T02:00:41.199Z,59.70
2018-08-03T02:03:09.988Z,57.30
2018-08-03T02:05:38.367Z,61.60
2018-08-03T02:08:07.062Z,61.00
2018-08-03T02:10:35.511Z,59.10
2018-08-03T02:13:04.229Z,61.40
2018-08-03T02:15:32.716Z,60.10
2018-08-03T02:18:01.228Z,60.50
2018-08-03T02:20:29.707Z,61.30
2018-08-03T02:22:58.103Z,61.10
2018-08-03T02:25:27.261Z,60.80
2018-08-03T02:27:55.870Z,64.50
2018-08-03T02:30:24.552Z,65.00
2018-08-03T02:32:53.199Z,67.30
2018-08-03T02:37:49.966Z,72.30
2018-08-03T02:40:19.019Z,73.10
2018-08-03T02:42:47.685Z,71.90
2018-08-03T02:45:16.335Z,71.60
2018-08-03T02:47:44.848Z,70.50
2018-08-03T02:50:14.950Z,70.60
2018-08-03T02:52:44.673Z,71.70
2018-08-03T02:55:13.046Z,71.60
2018-08-03T02:57:41.576Z,73.80
2018-08-03T03:00:10.534Z,75.30
2018-08-03T03:02:39.454Z,76.40
2018-08-03T03:05:07.842Z,76.40
2018-08-03T03:07:36.631Z,74.80
2018-08-03T03:10:05.599Z,78.10
2018-08-03T03:12:34.051Z,78.20
2018-08-03T03:15:03.767Z,79.80
2018-08-03T03:17:32.171Z,79.90
2018-08-03T03:20:01.183Z,81.00
2018-08-03T03:22:30.143Z,82.20
2018-08-03T03:24:59.021Z,81.70
2018-08-03T03:27:27.371Z,81.10
2018-08-03T03:29:56.108Z,78.10
2018-08-03T03:32:24.522Z,78.00
2018-08-03T03:34:52.858Z,76.30
2018-08-03T03:37:21.219Z,74.70
2018-08-03T03:39:49.623Z,74.80
2018-08-03T03:42:18.051Z,76.10
2018-08-03T03:44:46.965Z,78.80
2018-08-03T03:47:15.336Z,79.50
2018-08-03T03:49:43.715Z,79.10
2018-08-03T03:52:12.534Z,80.30
2018-08-03T03:54:41.375Z,79.70
2018-08-03T03:57:09.990Z,79.90
2018-08-03T03:59:38.383Z,79.50
2018-08-03T04:02:07.046Z,79.40
2018-08-03T04:04:35.723Z,79.00
2018-08-03T04:07:04.511Z,77.90
2018-08-03T04:09:32.887Z,76.70
2018-08-03T04:12:01.271Z,74.90
2018-08-03T04:14:29.943Z,76.10
2018-08-03T04:16:58.542Z,78.10
2018-08-03T04:19:27.532Z,76.40
2018-08-03T04:21:55.931Z,77.30
2018-08-03T04:24:24.319Z,77.50
2018-08-03T04:26:52.723Z,77.70
2018-08-03T04:29:21.071Z,76.30
2018-08-03T04:31:51.072Z,76.00
2018-08-03T04:34:19.712Z,75.70
2018-08-03T04:36:48.423Z,75.60
2018-08-03T04:39:17.552Z,75.80
2018-08-03T04:41:46.338Z,75.80
2018-08-03T04:44:14.817Z,76.10
2018-08-03T04:46:43.183Z,75.30
2018-08-03T04:49:11.789Z,75.10
2018-08-03T04:51:40.456Z,78.50
2018-08-03T04:54:08.842Z,79.20
2018-08-03T04:56:37.244Z,82.80
2018-08-03T04:59:05.885Z,82.10
2018-08-03T05:01:34.291Z,80.80
2018-08-03T05:04:02.675Z,80.80
2018-08-03T05:06:31.740Z,88.20
2018-08-03T05:09:00.716Z,74.30
2018-08-03T05:11:29.070Z,47.80
2018-08-03T05:13:57.463Z,34.70
2018-08-03T05:16:26.363Z,8.80
2018-08-03T05:18:55.181Z,21.50
2018-08-03T05:21:23.607Z,6.40
2018-08-03T05:23:52.224Z,1.00
2018-08-03T05:26:20.604Z,8.10
2018-08-03T05:28:48.968Z,1.00
2018-08-03T05:31:17.651Z,1.00
2018-08-03T05:33:46.831Z,1.00
2018-08-03T05:36:15.205Z,99.90
2018-08-03T05:38:43.927Z,1.00
2018-08-03T05:41:12.366Z,99.90
2018-08-03T05:43:41.648Z,1.00
2018-08-03T05:46:10.053Z,99.90
2018-08-03T05:48:38.759Z,99.90
2018-08-03T05:51:07.356Z,1.00
2018-08-03T05:53:36.045Z,99.90
2018-08-03T05:56:04.463Z,1.00
2018-08-03T05:58:32.819Z,1.00
2018-08-03T06:01:01.484Z,1.00
2018-08-03T06:03:30.135Z,1.00
2018-08-03T06:05:59.374Z,99.90
2018-08-03T06:08:28.402Z,1.00
2018-08-03T06:10:57.113Z,99.90
2018-08-03T06:13:26.162Z,99.90
2018-08-03T06:15:55.134Z,99.90
2018-08-03T06:18:23.794Z,99.90
2018-08-03T06:20:52.215Z,99.90
2018-08-03T06:23:20.583Z,99.90
2018-08-03T06:25:48.964Z,99.90
2018-08-03T06:28:17.639Z,99.90
2018-08-03T06:30:46.027Z,99.90
2018-08-03T06:33:14.416Z,99.90
2018-08-03T06:35:43.039Z,99.90
2018-08-03T06:38:11.812Z,99.90
2018-08-03T06:40:40.455Z,99.90
2018-08-03T06:43:08.878Z,99.90
2018-08-03T06:45:38.486Z,99.90
2018-08-03T06:48:07.203Z,99.90
2018-08-03T06:50:36.216Z,99.90
2018-08-03T06:53:05.133Z,99.90
2018-08-03T06:55:33.508Z,99.90
2018-08-03T06:58:01.915Z,77.90
2018-08-03T07:00:30.313Z,44.70
2018-08-03T07:02:59.076Z,12.80
2018-08-03T07:05:27.298Z,1.00
2018-08-03T07:07:55.928Z,1.00
2018-08-03T07:10:24.311Z,1.00
2018-08-03T07:12:53.075Z,1.00
2018-08-03T07:15:21.447Z,1.00
2018-08-03T07:17:49.807Z,1.00
2018-08-03T07:20:18.868Z,1.00
2018-08-03T07:22:47.400Z,1.00
2018-08-03T07:25:15.847Z,1.00
2018-08-03T07:27:44.207Z,1.00
2018-08-03T07:30:12.660Z,1.00
2018-08-03T07:32:41.306Z,1.00
2018-08-03T07:35:09.982Z,1.00
2018-08-03T07:37:38.446Z,1.00
2018-08-03T07:40:07.525Z,1.00
2018-08-03T07:42:36.454Z,1.00
2018-08-03T07:45:05.765Z,1.00
2018-08-03T07:47:34.071Z,1.00
2018-08-03T07:50:02.457Z,1.00
2018-08-03T07:52:30.831Z,1.00
2018-08-03T07:54:59.315Z,1.00
2018-08-03T07:57:28.161Z,1.00
2018-08-03T07:59:56.500Z,1.00
2018-08-03T08:04:53.659Z,1.00
2018-08-03T08:07:22.072Z,1.00
2018-08-03T08:09:50.659Z,1.00
2018-08-03T08:12:19.055Z,1.00
2018-08-03T08:14:47.700Z,1.00
2018-08-03T08:17:16.223Z,1.00
2018-08-03T08:19:44.619Z,1.00
2018-08-03T08:22:13.001Z,1.00
2018-08-03T08:24:42.471Z,1.00
2018-08-03T08:27:11.151Z,1.00
2018-08-03T08:29:39.495Z,1.00
2018-08-03T08:32:07.980Z,1.00
2018-08-03T08:34:36.347Z,1.00
2018-08-03T08:37:05.130Z,1.00
2018-08-03T08:39:34.270Z,1.00
2018-08-03T08:42:02.640Z,1.00
2018-08-03T08:44:31.019Z,1.00
2018-08-03T08:46:59.375Z,1.00
2018-08-03T08:49:27.758Z,1.00
2018-08-03T08:51:56.471Z,1.00
2018-08-03T08:54:25.163Z,1.00
2018-08-03T08:56:54.063Z,1.00
2018-08-03T08:59:22.499Z,1.00
2018-08-03T09:01:51.438Z,1.00
2018-08-03T09:04:20.131Z,1.00
2018-08-03T09:06:48.532Z,1.00
2018-08-03T09:09:16.902Z,1.00
2018-08-03T09:11:45.268Z,1.00
2018-08-03T09:14:13.638Z,1.00
2018-08-03T09:16:42.026Z,1.00
2018-08-03T09:19:10.394Z,1.00
2018-08-03T09:21:38.794Z,1.00
2018-08-03T09:24:07.436Z,1.00
2018-08-03T09:26:36.153Z,1.00
2018-08-03T09:29:04.803Z,1.00
2018-08-03T09:31:33.183Z,1.00
2018-08-03T09:34:02.074Z,1.00
2018-08-03T09:36:30.773Z,1.00
2018-08-03T09:38:59.435Z,1.00
2018-08-03T09:41:28.039Z,1.00
2018-08-03T09:43:56.454Z,1.00
2018-08-03T09:46:24.833Z,1.00
2018-08-03T09:48:54.347Z,1.00
2018-08-03T09:51:22.991Z,1.00
2018-08-03T09:53:51.467Z,1.00
2018-08-03T09:56:20.367Z,1.00
2018-08-03T09:58:48.718Z,1.00
2018-08-03T10:01:17.103Z,1.00
2018-08-03T10:03:45.462Z,1.00
2018-08-03T10:06:13.879Z,1.00
2018-08-03T10:08:42.252Z,1.00
2018-08-03T10:11:10.934Z,1.00
2018-08-03T10:13:39.449Z,1.00
2018-08-03T10:16:07.874Z,99.90
2018-08-03T10:18:36.260Z,1.00
2018-08-03T10:21:04.735Z,1.00
2018-08-03T10:23:33.426Z,1.00
2018-08-03T10:26:01.831Z,1.00
2018-08-03T10:28:30.243Z,1.00
2018-08-03T10:30:58.923Z,1.00
2018-08-03T10:33:28.071Z,99.90
2018-08-03T10:35:57.098Z,99.90
2018-08-03T10:38:25.497Z,99.90
2018-08-03T10:40:53.881Z,99.90
2018-08-03T10:43:22.298Z,99.90
2018-08-03T10:45:50.919Z,99.90
2018-08-03T10:48:20.573Z,99.90
2018-08-03T10:50:49.574Z,99.90
2018-08-03T10:53:18.267Z,99.90
2018-08-03T10:55:47.017Z,99.90
2018-08-03T10:58:15.410Z,99.90
2018-08-03T11:00:44.376Z,99.90
2018-08-03T11:03:12.743Z,99.90
2018-08-03T11:05:41.483Z,99.90
2018-08-03T11:08:10.167Z,99.90
2018-08-03T11:10:38.530Z,99.90
2018-08-03T11:13:07.334Z,99.90
2018-08-03T11:15:36.004Z,99.90
2018-08-03T11:18:04.699Z,99.90
2018-08-03T11:20:33.094Z,99.90
2018-08-03T11:23:01.731Z,99.90
2018-08-03T11:25:30.095Z,99.90
2018-08-03T11:27:58.499Z,99.90
2018-08-03T11:30:26.858Z,99.90
2018-08-03T11:32:55.548Z,99.90
2018-08-03T11:35:25.095Z,99.90
2018-08-03T11:37:53.683Z,99.90
2018-08-03T11:40:22.062Z,99.90
2018-08-03T11:42:50.463Z,99.90
2018-08-03T11:45:19.084Z,99.90
2018-08-03T11:47:47.462Z,99.90
2018-08-03T11:52:44.643Z,99.90
2018-08-03T11:55:13.047Z,99.90
2018-08-03T11:57:41.395Z,99.90
2018-08-03T12:00:10.051Z,99.90
2018-08-03T12:02:38.810Z,99.90
2018-08-03T12:05:07.271Z,99.90
2018-08-03T12:07:35.982Z,99.90
2018-08-03T12:10:04.636Z,99.90
2018-08-03T12:12:33.030Z,99.90
2018-08-03T12:15:01.467Z,99.90
2018-08-03T12:17:29.814Z,99.90
2018-08-03T12:19:58.560Z,99.90
2018-08-03T12:22:27.199Z,99.90
2018-08-03T12:24:55.856Z,99.90
2018-08-03T12:27:24.558Z,99.90
2018-08-03T12:29:53.526Z,99.90
2018-08-03T12:32:22.191Z,99.90
2018-08-03T12:34:50.547Z,99.90
2018-08-03T12:37:19.155Z,99.90
2018-08-03T12:39:48.047Z,99.90
2018-08-03T12:42:16.444Z,99.90
2018-08-03T12:44:44.892Z,99.90
2018-08-03T12:47:13.274Z,99.90
2018-08-03T12:49:42.408Z,99.90
2018-08-03T12:52:11.287Z,99.90
2018-08-03T12:54:39.700Z,99.90
2018-08-03T12:57:08.387Z,99.90
2018-08-03T12:59:37.083Z,99.90
2018-08-03T13:02:05.467Z,99.90
2018-08-03T13:04:33.855Z,99.90
2018-08-03T13:07:02.499Z,99.90
2018-08-03T13:09:31.303Z,99.90
2018-08-03T13:11:59.704Z,99.90
2018-08-03T13:14:28.336Z,99.90
2018-08-03T13:16:56.801Z,99.90
2018-08-03T13:19:25.247Z,99.90
2018-08-03T13:21:53.646Z,99.90
2018-08-03T13:24:22.086Z,99.90
2018-08-03T13:26:50.468Z,99.90
2018-08-03T13:29:19.565Z,99.90
2018-08-03T13:31:47.903Z,99.90
2018-08-03T13:34:16.286Z,99.90
2018-08-03T13:36:44.690Z,99.90
2018-08-03T13:39:13.481Z,99.90
2018-08-03T13:41:42.618Z,99.90
2018-08-03T13:44:10.981Z,99.90
2018-08-03T13:46:39.830Z,99.90
2018-08-03T13:49:08.211Z,99.90
2018-08-03T13:51:36.746Z,99.90
2018-08-03T13:54:05.267Z,99.90
2018-08-03T13:56:34.556Z,99.90
2018-08-03T13:59:03.210Z,99.90
2018-08-03T14:01:43.003Z,99.90
2018-08-03T14:04:12.117Z,99.90
2018-08-03T14:06:40.478Z,99.90
2018-08-03T14:09:09.134Z,99.90
2018-08-03T14:11:37.534Z,99.90
2018-08-03T14:14:05.894Z,99.90
2018-08-03T14:16:34.883Z,99.90
2018-08-03T14:19:03.271Z,99.90
2018-08-03T14:21:32.179Z,99.90
2018-08-03T14:24:00.764Z,99.90
2018-08-03T14:26:31.668Z,99.90
2018-08-03T14:29:02.789Z,99.90
2018-08-03T14:31:33.098Z,99.90
2018-08-03T14:34:03.491Z,99.90
2018-08-03T14:36:32.207Z,99.90
2018-08-03T14:39:00.628Z,99.90
2018-08-03T14:41:29.226Z,99.90
2018-08-03T14:43:57.631Z,99.90
2018-08-03T14:46:26.006Z,99.90
2018-08-03T14:51:22.983Z,99.90
2018-08-03T14:53:51.803Z,99.90
2018-08-03T14:56:20.486Z,99.90
2018-08-03T14:58:49.175Z,99.90
2018-08-03T15:01:17.891Z,99.90
2018-08-03T15:03:46.251Z,99.90
2018-08-03T15:06:14.611Z,99.90
2018-08-03T15:08:43.015Z,99.90
2018-08-03T15:11:11.687Z,99.90
2018-08-03T15:13:40.087Z,99.90
2018-08-03T15:16:08.474Z,99.90
2018-08-03T15:18:36.840Z,99.90
2018-08-03T15:21:06.839Z,99.90
2018-08-03T15:23:36.860Z,99.90
2018-08-03T15:26:05.495Z,99.90
2018-08-03T15:28:34.375Z,99.90
2018-08-03T15:31:02.750Z,99.90
2018-08-03T15:35:59.483Z,99.90
2018-08-03T15:38:28.143Z,99.90
2018-08-03T15:40:56.662Z,99.90
2018-08-03T15:43:25.015Z,99.90
2018-08-03T15:45:53.403Z,99.90
2018-08-03T15:48:22.118Z,99.90
2018-08-03T15:50:50.979Z,99.90
2018-08-03T15:53:19.338Z,99.90
2018-08-03T15:55:47.919Z,99.90
2018-08-03T15:58:16.611Z,99.90
2018-08-03T16:00:45.026Z,99.90
2018-08-03T16:03:13.407Z,99.90
2018-08-03T16:05:42.059Z,99.90
2018-08-03T16:08:10.458Z,99.90
2018-08-03T16:10:38.827Z,99.90
2018-08-03T16:13:07.215Z,99.90
2018-08-03T16:15:35.890Z,99.90
2018-08-03T16:18:04.267Z,99.90
2018-08-03T16:20:32.716Z,99.90
2018-08-03T16:23:01.524Z,99.90
2018-08-03T16:25:31.207Z,99.90
2018-08-03T16:28:00.251Z,99.90
2018-08-03T16:30:28.661Z,99.90
2018-08-03T16:35:25.738Z,99.90
2018-08-03T16:37:54.855Z,99.90
2018-08-03T16:40:23.313Z,99.90
2018-08-03T16:42:52.344Z,99.90
2018-08-03T16:45:20.786Z,99.90
2018-08-03T16:47:49.232Z,99.90
2018-08-03T16:50:17.635Z,99.90
2018-08-03T16:55:14.083Z,99.90
2018-08-03T17:00:11.276Z,99.90
2018-08-03T17:02:40.101Z,99.90
2018-08-03T17:05:08.501Z,99.90
2018-08-03T17:07:36.862Z,99.90
2018-08-03T17:10:05.827Z,99.90
2018-08-03T17:12:34.200Z,99.90
2018-08-03T17:15:02.919Z,99.90
2018-08-03T17:17:31.635Z,99.90
2018-08-03T17:20:00.359Z,99.90
2018-08-03T17:22:28.731Z,99.90
2018-08-03T17:24:57.520Z,99.90
2018-08-03T17:27:26.214Z,99.90
2018-08-03T17:29:54.839Z,99.90
2018-08-03T17:32:23.435Z,99.90
2018-08-03T17:34:51.810Z,99.90
2018-08-03T17:37:20.182Z,99.90
2018-08-03T17:39:49.046Z,99.90
2018-08-03T17:42:17.412Z,99.90
2018-08-03T17:44:45.789Z,99.90
2018-08-03T17:47:14.631Z,99.90
2018-08-03T17:49:43.291Z,99.90
2018-08-03T17:52:11.649Z,99.90
2018-08-03T17:54:40.040Z,99.90
2018-08-03T17:57:08.699Z,99.90
2018-08-03T17:59:37.059Z,99.90
2018-08-03T18:02:05.487Z,99.90
2018-08-03T18:04:34.236Z,99.90
2018-08-03T18:07:02.926Z,99.90
2018-08-03T18:09:31.603Z,99.90
2018-08-03T18:12:00.263Z,99.90
2018-08-03T18:14:28.643Z,99.90
2018-08-03T18:16:57.023Z,99.90
2018-08-03T18:19:25.421Z,99.90
2018-08-03T18:21:53.916Z,99.90
2018-08-03T18:24:22.250Z,99.90
2018-08-03T18:26:51.335Z,99.90
2018-08-03T18:29:19.717Z,99.90
2018-08-03T18:34:16.455Z,99.90
2018-08-03T18:36:44.867Z,99.90
2018-08-03T18:39:13.538Z,99.90
2018-08-03T18:41:42.898Z,99.90
2018-08-03T18:44:11.721Z,99.90
2018-08-03T18:46:40.285Z,99.90
2018-08-03T18:49:08.871Z,99.90
2018-08-03T18:51:37.755Z,99.90
2018-08-03T18:54:06.359Z,99.90
2018-08-03T18:56:35.752Z,99.90
2018-08-03T18:59:04.131Z,99.90
2018-08-03T19:01:33.351Z,99.90
2018-08-03T19:04:01.715Z,99.90
2018-08-03T19:06:30.410Z,99.90
2018-08-03T19:08:59.574Z,99.90
2018-08-03T19:11:27.970Z,99.90
2018-08-03T19:13:57.451Z,99.90
2018-08-03T19:16:26.151Z,99.90
2018-08-03T19:18:54.554Z,99.90
2018-08-03T19:21:22.918Z,99.90
2018-08-03T19:23:51.566Z,99.90
2018-08-03T19:26:19.975Z,99.90
2018-08-03T19:28:48.675Z,99.90
2018-08-03T19:31:17.118Z,99.90
2018-08-03T19:33:45.503Z,99.90
2018-08-03T19:36:14.198Z,99.90
2018-08-03T19:38:42.942Z,99.90
2018-08-03T19:41:11.427Z,99.90
2018-08-03T19:43:40.335Z,99.90
2018-08-03T19:46:08.714Z,99.90
2018-08-03T19:48:37.087Z,99.90
2018-08-03T19:51:06.302Z,99.90
2018-08-03T19:53:34.979Z,1.00
2018-08-03T19:56:04.213Z,1.00
2018-08-03T19:58:32.689Z,1.00
2018-08-03T20:01:01.648Z,99.90
2018-08-03T20:03:30.043Z,99.90
2018-08-03T20:05:58.459Z,99.90
2018-08-03T20:10:56.251Z,99.90
2018-08-03T20:13:24.763Z,99.90
2018-08-03T20:15:53.599Z,99.90
2018-08-03T20:18:22.424Z,1.00
2018-08-03T20:20:50.978Z,1.00
2018-08-03T20:23:19.670Z,1.00
2018-08-03T20:25:48.919Z,1.00
2018-08-03T20:28:17.495Z,1.00
2018-08-03T20:30:45.884Z,1.00
2018-08-03T20:33:14.255Z,1.00
2018-08-03T20:35:42.615Z,1.00
2018-08-03T20:38:11.315Z,99.90
2018-08-03T20:40:40.331Z,99.90
2018-08-03T20:43:08.747Z,99.90
2018-08-03T20:45:37.783Z,1.00
2018-08-03T20:48:06.167Z,66.80
2018-08-03T20:50:34.523Z,1.00
2018-08-03T20:53:02.954Z,37.40
2018-08-03T20:55:31.590Z,99.90
2018-08-03T20:58:00.184Z,1.00
2018-08-03T21:00:29.279Z,1.00
2018-08-03T21:02:57.966Z,1.00
2018-08-03T21:05:26.326Z,68.90
2018-08-03T21:07:54.713Z,99.90
2018-08-03T21:10:23.411Z,77.80
2018-08-03T21:12:51.783Z,99.90
2018-08-03T21:15:20.386Z,1.00
2018-08-03T21:17:48.796Z,1.00
2018-08-03T21:20:17.223Z,99.90
2018-08-03T21:22:46.273Z,99.90
2018-08-03T21:25:15.247Z,1.00
2018-08-03T21:27:43.955Z,99.90
2018-08-03T21:30:12.414Z,1.00
2018-08-03T21:32:41.018Z,18.90
2018-08-03T21:35:09.390Z,2.60
2018-08-03T21:37:37.762Z,99.90
2018-08-03T21:40:06.231Z,99.90
2018-08-03T21:42:35.442Z,1.00
2018-08-03T21:45:04.346Z,1.00
2018-08-03T21:47:32.998Z,1.00
2018-08-03T21:50:01.721Z,1.00
2018-08-03T21:52:30.954Z,99.90
2018-08-03T21:54:59.741Z,1.00
2018-08-03T21:57:28.738Z,30.30
2018-08-03T21:59:57.333Z,99.90
2018-08-03T22:02:26.025Z,99.90
2018-08-03T22:04:54.427Z,99.90
2018-08-03T22:07:22.867Z,99.90
2018-08-03T22:09:51.459Z,99.90
2018-08-03T22:12:20.219Z,99.90
2018-08-03T22:14:49.226Z,99.90
2018-08-03T22:17:17.982Z,99.90
2018-08-03T22:19:47.131Z,99.90
2018-08-03T22:22:15.789Z,99.90
2018-08-03T22:24:44.285Z,1.00
2018-08-03T22:27:12.973Z,1.00
2018-08-03T22:29:41.647Z,1.00
2018-08-03T22:32:10.059Z,1.00
2018-08-03T22:34:38.710Z,1.00
2018-08-03T22:37:07.599Z,1.00
2018-08-03T22:39:36.318Z,1.00
2018-08-03T22:42:04.966Z,1.00
2018-08-03T22:44:33.859Z,1.00
2018-08-03T22:47:02.311Z,1.00
2018-08-03T22:49:31.143Z,1.00
2018-08-03T22:51:59.529Z,1.00
2018-08-03T22:54:27.898Z,1.00
2018-08-03T22:56:59.196Z,1.00
2018-08-03T22:59:30.015Z,1.00
2018-08-03T23:02:00.141Z,1.00
2018-08-03T23:04:28.886Z,1.00
2018-08-03T23:06:57.237Z,1.00
2018-08-03T23:09:25.966Z,1.00
2018-08-03T23:11:54.786Z,1.00
2018-08-03T23:14:23.477Z,1.00
2018-08-03T23:19:20.211Z,1.00
2018-08-03T23:21:48.880Z,1.00
2018-08-03T23:24:17.559Z,1.00
2018-08-03T23:26:45.943Z,1.00
2018-08-03T23:29:14.320Z,1.00
2018-08-03T23:31:42.807Z,1.00
2018-08-03T23:34:11.179Z,1.00
2018-08-03T23:36:39.535Z,1.00
2018-08-03T23:39:08.962Z,1.00
2018-08-03T23:41:37.366Z,1.00
2018-08-03T23:44:05.755Z,1.00
2018-08-03T23:49:02.796Z,1.00
2018-08-03T23:51:31.179Z,1.00
2018-08-03T23:53:59.618Z,1.00
2018-08-03T23:56:28.290Z,1.00
2018-08-03T23:58:56.689Z,1.00
